Time;durP1;ratioP1;P1;durP2;ratioP2;P2;SDS_P1;SDS_P2;PMS_P1;PMS_P2;Temp;Humidity;BMP_temperature;BMP_pressure;BME280_temperature;BME280_humidity;BME280_pressure;Samples;Min_cycle;Max_cycle;Signal;HPM_P1;HPM_P2
2023/06/11 00:02:08;;;;;;;10.27;9.27;;;;;;;;;;5080964;28;20485;-81
2023/06/11 00:04:35;;;;;;;9.63;8.30;;;;;;;;;;5083487;28;20455;-81
2023/06/11 00:07:05;;;;;;;17.77;10.87;;;;;;;;;;5076733;28;20491;-81
2023/06/11 00:09:33;;;;;;;9.50;8.60;;;;;;;;;;5083105;28;20446;-82
2023/06/11 00:11:59;;;;;;;10.87;9.77;;;;;;;;;;5088888;28;20467;-82
2023/06/11 00:14:26;;;;;;;9.60;8.67;;;;;;;;;;5086635;28;20967;-82
2023/06/11 00:16:52;;;;;;;12.30;9.63;;;;;;;;;;5083892;28;20987;-81
2023/06/11 00:19:20;;;;;;;10.83;8.60;;;;;;;;;;5078434;28;20457;-81
2023/06/11 00:21:48;;;;;;;9.63;8.67;;;;;;;;;;5079222;28;20459;-82
2023/06/11 00:24:15;;;;;;;9.87;8.87;;;;;;;;;;5079562;28;20439;-80
2023/06/11 00:26:43;;;;;;;13.63;8.73;;;;;;;;;;5079227;28;20462;-80
2023/06/11 00:29:10;;;;;;;11.37;9.20;;;;;;;;;;5078788;28;20438;-80
2023/06/11 00:31:38;;;;;;;10.40;9.30;;;;;;;;;;5072375;28;20459;-80
2023/06/11 00:34:04;;;;;;;9.57;8.60;;;;;;;;;;5080850;28;20442;-80
2023/06/11 00:36:33;;;;;;;11.60;7.87;;;;;;;;;;5087632;28;21016;-80
2023/06/11 00:39:01;;;;;;;9.50;8.50;;;;;;;;;;5083528;28;20532;-80
2023/06/11 00:41:30;;;;;;;10.17;9.20;;;;;;;;;;5082878;28;20453;-80
2023/06/11 00:43:59;;;;;;;10.13;8.97;;;;;;;;;;5076201;28;20482;-80
2023/06/11 00:46:26;;;;;;;10.27;7.50;;;;;;;;;;5081579;28;20454;-80
2023/06/11 00:48:52;;;;;;;9.47;7.93;;;;;;;;;;5087664;28;20555;-80
2023/06/11 00:51:21;;;;;;;8.90;8.10;;;;;;;;;;5074890;28;20464;-80
2023/06/11 00:53:48;;;;;;;10.83;8.53;;;;;;;;;;5080374;28;20454;-80
2023/06/11 00:56:17;;;;;;;9.37;8.40;;;;;;;;;;5078092;28;20454;-80
2023/06/11 00:58:45;;;;;;;8.47;7.50;;;;;;;;;;5082747;28;20441;-81
2023/06/11 01:01:15;;;;;;;12.20;7.70;;;;;;;;;;5086574;28;20553;-81
2023/06/11 01:03:43;;;;;;;9.93;7.67;;;;;;;;;;5084388;28;20533;-81
2023/06/11 01:06:11;;;;;;;9.53;8.53;;;;;;;;;;5080921;28;20504;-81
2023/06/11 01:08:40;;;;;;;8.20;7.10;;;;;;;;;;5083397;28;20482;-81
2023/06/11 01:11:09;;;;;;;9.10;7.43;;;;;;;;;;5070027;28;20530;-81
2023/06/11 01:13:36;;;;;;;8.70;7.40;;;;;;;;;;5063015;28;20985;-81
2023/06/11 01:16:07;;;;;;;9.40;7.87;;;;;;;;;;5086779;28;20449;-81
2023/06/11 01:18:40;;;;;;;9.20;6.37;;;;;;;;;;5081811;28;20474;-81
2023/06/11 01:21:09;;;;;;;7.30;6.57;;;;;;;;;;5080497;28;20449;-80
2023/06/11 01:23:41;;;;;;;8.97;7.53;;;;;;;;;;5079160;28;20499;-82
2023/06/11 01:26:16;;;;;;;10.03;6.43;;;;;;;;;;5082247;28;20879;-82
2023/06/11 01:28:52;;;;;;;7.33;5.90;;;;;;;;;;5072136;28;20446;-80
2023/06/11 01:31:19;;;;;;;11.07;7.00;;;;;;;;;;5076839;28;20471;-82
2023/06/11 01:33:45;;;;;;;10.33;6.90;;;;;;;;;;5078041;28;20450;-80
2023/06/11 01:36:14;;;;;;;8.10;5.80;;;;;;;;;;5085342;28;20447;-82
2023/06/11 01:38:42;;;;;;;7.97;6.07;;;;;;;;;;5067274;28;20860;-82
2023/06/11 01:41:09;;;;;;;7.80;5.80;;;;;;;;;;5080496;28;20457;-81
2023/06/11 01:43:36;;;;;;;10.13;6.20;;;;;;;;;;5075959;28;20463;-81
2023/06/11 01:46:05;;;;;;;5.70;5.20;;;;;;;;;;5071851;28;20450;-81
2023/06/11 01:48:32;;;;;;;5.67;5.07;;;;;;;;;;5069112;28;21011;-81
2023/06/11 01:50:58;;;;;;;6.07;5.47;;;;;;;;;;5076845;28;20465;-81
2023/06/11 01:53:25;;;;;;;8.30;5.93;;;;;;;;;;5076914;28;20471;-81
2023/06/11 01:55:51;;;;;;;9.23;6.43;;;;;;;;;;5080019;28;20465;-81
2023/06/11 01:58:18;;;;;;;10.57;5.60;;;;;;;;;;5080318;28;20485;-81
2023/06/11 02:00:47;;;;;;;7.07;6.00;;;;;;;;;;5076120;28;20422;-81
2023/06/11 02:03:15;;;;;;;8.60;5.90;;;;;;;;;;5087667;28;21009;-82
2023/06/11 02:05:42;;;;;;;8.50;5.87;;;;;;;;;;5083961;28;20508;-81
2023/06/11 02:08:08;;;;;;;6.77;5.27;;;;;;;;;;5078205;28;20449;-81
2023/06/11 02:10:34;;;;;;;6.47;4.83;;;;;;;;;;5080881;28;20409;-81
2023/06/11 02:13:01;;;;;;;8.23;5.33;;;;;;;;;;5082815;28;20450;-81
2023/06/11 02:15:27;;;;;;;8.20;5.00;;;;;;;;;;5078202;28;20419;-81
2023/06/11 02:17:54;;;;;;;9.20;5.87;;;;;;;;;;5077737;28;20474;-81
2023/06/11 02:20:22;;;;;;;8.33;4.90;;;;;;;;;;5074849;28;20421;-81
2023/06/11 02:22:48;;;;;;;10.37;5.00;;;;;;;;;;5077624;28;20483;-81
2023/06/11 02:25:15;;;;;;;8.60;4.17;;;;;;;;;;5078540;28;20454;-81
2023/06/11 02:27:41;;;;;;;16.07;5.37;;;;;;;;;;5076166;28;20453;-81
2023/06/11 02:30:08;;;;;;;6.47;4.17;;;;;;;;;;5082342;28;20421;-81
2023/06/11 02:32:34;;;;;;;16.03;5.30;;;;;;;;;;5078431;28;20470;-80
2023/06/11 02:35:01;;;;;;;10.27;5.07;;;;;;;;;;5071839;28;20496;-81
2023/06/11 02:37:29;;;;;;;5.87;4.23;;;;;;;;;;5082518;28;20449;-81
2023/06/11 02:39:55;;;;;;;7.33;4.00;;;;;;;;;;5071409;28;20813;-81
2023/06/11 02:42:21;;;;;;;9.40;4.37;;;;;;;;;;5070470;28;20470;-81
2023/06/11 02:44:48;;;;;;;9.43;3.90;;;;;;;;;;5076978;28;20453;-81
2023/06/11 02:47:18;;;;;;;7.87;4.87;;;;;;;;;;5076424;28;20486;-81
2023/06/11 02:49:46;;;;;;;8.50;4.30;;;;;;;;;;5085352;28;20433;-81
2023/06/11 02:52:12;;;;;;;6.53;4.40;;;;;;;;;;5076909;28;20842;-81
2023/06/11 02:54:40;;;;;;;6.77;4.50;;;;;;;;;;5082476;28;20459;-81
2023/06/11 02:57:06;;;;;;;5.30;3.70;;;;;;;;;;5084787;28;20470;-81
2023/06/11 02:59:33;;;;;;;6.17;3.87;;;;;;;;;;5082626;28;20444;-81
2023/06/11 03:01:59;;;;;;;5.17;4.10;;;;;;;;;;5083135;28;20465;-81
2023/06/11 03:04:26;;;;;;;6.13;3.80;;;;;;;;;;5083652;28;20467;-81
2023/06/11 03:06:54;;;;;;;5.00;3.60;;;;;;;;;;5083569;28;20461;-81
2023/06/11 03:09:21;;;;;;;5.50;3.70;;;;;;;;;;5076852;28;20429;-81
2023/06/11 03:11:50;;;;;;;4.57;3.77;;;;;;;;;;5075839;28;20491;-81
2023/06/11 03:14:16;;;;;;;7.20;4.80;;;;;;;;;;5082436;28;20414;-81
2023/06/11 03:16:44;;;;;;;7.23;3.93;;;;;;;;;;5088927;28;20991;-81
2023/06/11 03:19:10;;;;;;;5.57;3.80;;;;;;;;;;5077714;28;20447;-81
2023/06/11 03:21:36;;;;;;;8.57;3.40;;;;;;;;;;5074733;28;20421;-81
2023/06/11 03:24:03;;;;;;;5.60;3.60;;;;;;;;;;5087131;28;20990;-81
2023/06/11 03:26:31;;;;;;;5.70;3.70;;;;;;;;;;5075695;28;20459;-81
2023/06/11 03:28:59;;;;;;;5.80;3.67;;;;;;;;;;5085652;28;20448;-81
2023/06/11 03:31:26;;;;;;;5.93;4.00;;;;;;;;;;5065240;28;20488;-81
2023/06/11 03:33:53;;;;;;;6.10;3.60;;;;;;;;;;5073004;28;20439;-81
2023/06/11 03:36:19;;;;;;;6.43;4.00;;;;;;;;;;5088453;28;20937;-80
2023/06/11 03:38:45;;;;;;;7.30;4.00;;;;;;;;;;5081365;28;20518;-81
2023/06/11 03:41:12;;;;;;;4.83;3.70;;;;;;;;;;5080272;28;20417;-81
2023/06/11 03:43:38;;;;;;;6.67;3.30;;;;;;;;;;5083624;28;20478;-81
2023/06/11 03:46:06;;;;;;;8.70;3.77;;;;;;;;;;5089144;28;20450;-81
2023/06/11 03:48:32;;;;;;;9.33;4.07;;;;;;;;;;5084414;28;20982;-81
2023/06/11 03:50:59;;;;;;;7.90;3.80;;;;;;;;;;5083230;28;20417;-81
2023/06/11 03:53:26;;;;;;;11.13;4.10;;;;;;;;;;5076955;28;20520;-81
2023/06/11 03:55:52;;;;;;;8.20;4.63;;;;;;;;;;5079792;28;20429;-81
2023/06/11 03:58:20;;;;;;;6.67;3.80;;;;;;;;;;5074566;28;20442;-81
2023/06/11 04:00:46;;;;;;;10.27;3.83;;;;;;;;;;5085799;28;20419;-81
2023/06/11 04:03:14;;;;;;;4.67;4.17;;;;;;;;;;5071070;28;20467;-81
2023/06/11 04:05:42;;;;;;;9.23;4.10;;;;;;;;;;5081747;28;20845;-81
2023/06/11 04:08:09;;;;;;;6.33;3.30;;;;;;;;;;5078589;28;20536;-80
2023/06/11 04:10:35;;;;;;;4.80;3.50;;;;;;;;;;5078196;28;20446;-81
2023/06/11 04:13:01;;;;;;;5.53;3.80;;;;;;;;;;5083473;28;20442;-81
2023/06/11 04:15:28;;;;;;;8.50;3.80;;;;;;;;;;5076557;28;20458;-81
2023/06/11 04:17:54;;;;;;;9.57;4.53;;;;;;;;;;5075153;28;20498;-81
2023/06/11 04:20:22;;;;;;;6.53;3.70;;;;;;;;;;5079560;28;20845;-81
2023/06/11 04:22:48;;;;;;;9.53;3.70;;;;;;;;;;5083172;28;20836;-81
2023/06/11 04:25:16;;;;;;;4.03;3.43;;;;;;;;;;5071662;28;20491;-81
2023/06/11 04:27:43;;;;;;;6.60;3.80;;;;;;;;;;5086991;28;20474;-81
2023/06/11 04:30:12;;;;;;;4.93;3.73;;;;;;;;;;5071095;28;20430;-81
2023/06/11 04:32:40;;;;;;;5.30;3.03;;;;;;;;;;5075343;28;20495;-82
2023/06/11 04:35:07;;;;;;;8.10;4.53;;;;;;;;;;5074703;28;20421;-80
2023/06/11 04:37:38;;;;;;;5.80;4.10;;;;;;;;;;5084003;28;20458;-81
2023/06/11 04:40:09;;;;;;;3.70;3.40;;;;;;;;;;5081519;28;20409;-81
2023/06/11 04:42:35;;;;;;;6.40;3.50;;;;;;;;;;5080565;28;20528;-81
2023/06/11 04:45:04;;;;;;;4.63;3.70;;;;;;;;;;5092915;28;20486;-81
2023/06/11 04:47:32;;;;;;;7.27;3.03;;;;;;;;;;5076832;28;20503;-81
2023/06/11 04:50:03;;;;;;;4.10;3.20;;;;;;;;;;5079140;28;20453;-81
2023/06/11 04:52:31;;;;;;;4.57;3.00;;;;;;;;;;5074863;28;20467;-81
2023/06/11 04:54:59;;;;;;;5.10;3.80;;;;;;;;;;5081334;28;20446;-81
2023/06/11 04:57:25;;;;;;;8.77;3.83;;;;;;;;;;5082743;28;20478;-81
2023/06/11 04:59:52;;;;;;;4.53;3.80;;;;;;;;;;5081402;28;20459;-81
2023/06/11 05:02:18;;;;;;;6.77;3.60;;;;;;;;;;5071587;28;20524;-81
2023/06/11 05:04:49;;;;;;;7.53;3.80;;;;;;;;;;5077895;28;20490;-81
2023/06/11 05:07:15;;;;;;;7.33;3.53;;;;;;;;;;5077358;28;20482;-81
2023/06/11 05:09:42;;;;;;;6.90;2.97;;;;;;;;;;5084865;28;20426;-79
2023/06/11 05:12:11;;;;;;;9.07;4.40;;;;;;;;;;5076332;28;20453;-80
2023/06/11 05:14:37;;;;;;;6.20;3.37;;;;;;;;;;5080031;28;20928;-81
2023/06/11 05:17:04;;;;;;;6.53;3.70;;;;;;;;;;5078833;28;20481;-82
2023/06/11 05:19:30;;;;;;;7.90;3.03;;;;;;;;;;5082813;28;20421;-79
2023/06/11 05:21:56;;;;;;;7.40;3.90;;;;;;;;;;5084427;28;20442;-79
2023/06/11 05:24:28;;;;;;;10.23;4.57;;;;;;;;;;5079786;28;20482;-81
2023/06/11 05:26:56;;;;;;;7.97;4.10;;;;;;;;;;5070180;28;20493;-79
2023/06/11 05:29:25;;;;;;;6.07;4.07;;;;;;;;;;5081559;28;20499;-79
2023/06/11 05:31:51;;;;;;;8.00;4.10;;;;;;;;;;5087016;28;20466;-80
2023/06/11 05:34:18;;;;;;;5.57;3.73;;;;;;;;;;5076979;28;20436;-80
2023/06/11 05:36:45;;;;;;;6.43;3.87;;;;;;;;;;5089261;28;20462;-79
2023/06/11 05:39:12;;;;;;;5.80;3.80;;;;;;;;;;5075030;28;20962;-80
2023/06/11 05:41:39;;;;;;;5.67;4.00;;;;;;;;;;5078228;28;20979;-79
2023/06/11 05:44:06;;;;;;;6.37;3.53;;;;;;;;;;5074542;28;20460;-79
2023/06/11 05:46:34;;;;;;;4.83;3.63;;;;;;;;;;5072804;28;21006;-80
2023/06/11 05:49:00;;;;;;;5.40;3.77;;;;;;;;;;5067191;28;20458;-80
2023/06/11 05:51:27;;;;;;;5.97;3.63;;;;;;;;;;5085876;28;20458;-80
2023/06/11 05:53:53;;;;;;;5.70;4.73;;;;;;;;;;5079742;28;20495;-80
2023/06/11 05:56:19;;;;;;;5.07;3.23;;;;;;;;;;5081824;28;20406;-79
2023/06/11 05:58:46;;;;;;;6.07;4.13;;;;;;;;;;5074983;28;20947;-80
2023/06/11 06:01:12;;;;;;;6.07;3.33;;;;;;;;;;5073546;28;20811;-80
2023/06/11 06:03:40;;;;;;;7.83;4.80;;;;;;;;;;5083733;28;20470;-79
2023/06/11 06:06:08;;;;;;;9.23;4.20;;;;;;;;;;5078540;28;20915;-80
2023/06/11 06:08:35;;;;;;;8.30;4.80;;;;;;;;;;5076586;28;20457;-81
2023/06/11 06:11:01;;;;;;;8.23;3.77;;;;;;;;;;5086129;28;20458;-82
2023/06/11 06:13:27;;;;;;;8.83;4.80;;;;;;;;;;5078531;28;20486;-81
2023/06/11 06:15:54;;;;;;;7.00;4.33;;;;;;;;;;5079712;28;20517;-81
2023/06/11 06:18:21;;;;;;;5.30;4.17;;;;;;;;;;5082508;28;20455;-81
2023/06/11 06:20:48;;;;;;;10.40;4.10;;;;;;;;;;5074292;28;20511;-81
2023/06/11 06:23:15;;;;;;;7.00;4.90;;;;;;;;;;5081599;28;20471;-81
2023/06/11 06:25:41;;;;;;;7.40;4.53;;;;;;;;;;5082967;28;20849;-82
2023/06/11 06:28:07;;;;;;;6.63;5.10;;;;;;;;;;5063226;28;20474;-79
2023/06/11 06:30:34;;;;;;;8.37;5.10;;;;;;;;;;5082824;28;20443;-79
2023/06/11 06:33:01;;;;;;;4.63;3.90;;;;;;;;;;5079320;28;20486;-79
2023/06/11 06:35:27;;;;;;;7.17;4.63;;;;;;;;;;5090455;28;20444;-80
2023/06/11 06:37:55;;;;;;;7.80;4.87;;;;;;;;;;5079476;28;20446;-79
2023/06/11 06:40:23;;;;;;;9.23;5.40;;;;;;;;;;5082162;28;20442;-81
2023/06/11 06:42:50;;;;;;;10.07;5.07;;;;;;;;;;5080810;28;20476;-79
2023/06/11 06:45:16;;;;;;;7.50;5.07;;;;;;;;;;5087135;28;20489;-80
2023/06/11 06:47:42;;;;;;;8.60;5.80;;;;;;;;;;5081030;28;20471;-80
2023/06/11 06:50:09;;;;;;;6.97;4.90;;;;;;;;;;5087621;28;20454;-80
2023/06/11 06:52:36;;;;;;;8.27;4.80;;;;;;;;;;5088827;28;20480;-80
2023/06/11 06:55:03;;;;;;;7.47;5.20;;;;;;;;;;5084474;28;20431;-80
2023/06/11 06:57:30;;;;;;;9.40;5.10;;;;;;;;;;5080773;28;20476;-80
2023/06/11 06:59:56;;;;;;;7.67;5.27;;;;;;;;;;5082970;28;20468;-80
2023/06/11 07:02:23;;;;;;;8.03;5.63;;;;;;;;;;5085660;28;20475;-80
2023/06/11 07:04:49;;;;;;;10.00;5.50;;;;;;;;;;5081032;28;20509;-80
2023/06/11 07:07:17;;;;;;;5.70;5.13;;;;;;;;;;5089612;28;20470;-80
2023/06/11 07:09:43;;;;;;;9.90;6.37;;;;;;;;;;5077426;28;20453;-80
2023/06/11 07:12:11;;;;;;;10.37;6.23;;;;;;;;;;5085954;28;20477;-80
2023/06/11 07:14:38;;;;;;;10.27;5.77;;;;;;;;;;5086217;28;20457;-80
2023/06/11 07:17:05;;;;;;;6.20;5.47;;;;;;;;;;5079994;28;20479;-80
2023/06/11 07:19:32;;;;;;;9.97;6.40;;;;;;;;;;5081643;28;20446;-80
2023/06/11 07:22:00;;;;;;;7.70;6.20;;;;;;;;;;5083870;28;20469;-81
2023/06/11 07:24:26;;;;;;;9.93;6.20;;;;;;;;;;5082879;28;20486;-81
2023/06/11 07:26:54;;;;;;;7.90;5.30;;;;;;;;;;5086099;28;20462;-84
2023/06/11 07:29:21;;;;;;;37.00;6.23;;;;;;;;;;5083270;28;20979;-80
2023/06/11 07:31:48;;;;;;;7.60;5.70;;;;;;;;;;5083012;28;20984;-81
2023/06/11 07:34:15;;;;;;;10.63;6.43;;;;;;;;;;5083735;28;20443;-80
2023/06/11 07:36:42;;;;;;;14.60;6.27;;;;;;;;;;5079415;28;20490;-80
2023/06/11 07:39:08;;;;;;;7.63;6.30;;;;;;;;;;5082643;28;20533;-80
2023/06/11 07:41:35;;;;;;;8.17;5.73;;;;;;;;;;5083846;28;20438;-80
2023/06/11 07:44:03;;;;;;;8.50;6.97;;;;;;;;;;5078561;28;20463;-80
2023/06/11 07:46:30;;;;;;;7.40;5.90;;;;;;;;;;5081034;28;20475;-80
2023/06/11 07:48:57;;;;;;;9.93;6.60;;;;;;;;;;5076443;28;20463;-80
2023/06/11 07:51:23;;;;;;;10.40;7.00;;;;;;;;;;5090595;28;20469;-80
2023/06/11 07:53:50;;;;;;;10.13;6.30;;;;;;;;;;5079922;28;20500;-80
2023/06/11 07:56:16;;;;;;;7.07;6.33;;;;;;;;;;5080132;28;20927;-80
2023/06/11 07:58:43;;;;;;;10.10;6.90;;;;;;;;;;5083795;28;20473;-80
2023/06/11 08:01:10;;;;;;;6.80;6.07;;;;;;;;;;5081192;28;20462;-81
2023/06/11 08:03:37;;;;;;;13.63;6.50;;;;;;;;;;5080415;28;20574;-80
2023/06/11 08:06:04;;;;;;;9.37;6.87;;;;;;;;;;5080821;28;20483;-81
2023/06/11 08:08:30;;;;;;;7.47;6.10;;;;;;;;;;5078124;28;20490;-80
2023/06/11 08:10:57;;;;;;;14.97;7.40;;;;;;;;;;5080574;28;20459;-81
2023/06/11 08:13:23;;;;;;;8.20;7.40;;;;;;;;;;5076155;28;20471;-81
2023/06/11 08:15:50;;;;;;;9.37;7.10;;;;;;;;;;5087881;28;20541;-81
2023/06/11 08:18:16;;;;;;;8.43;6.80;;;;;;;;;;5077480;28;20470;-81
2023/06/11 08:20:45;;;;;;;13.40;7.43;;;;;;;;;;5087710;28;20485;-81
2023/06/11 08:23:12;;;;;;;12.73;7.37;;;;;;;;;;5079416;28;20475;-81
2023/06/11 08:25:39;;;;;;;6.83;6.23;;;;;;;;;;5082931;28;21043;-81
2023/06/11 08:28:05;;;;;;;7.80;6.90;;;;;;;;;;5087732;28;20478;-81
2023/06/11 08:30:32;;;;;;;7.57;6.87;;;;;;;;;;5081939;28;20994;-81
2023/06/11 08:32:58;;;;;;;8.93;7.10;;;;;;;;;;5084546;28;20485;-80
2023/06/11 08:35:24;;;;;;;11.60;7.40;;;;;;;;;;5083248;28;20451;-81
2023/06/11 08:37:52;;;;;;;8.57;7.17;;;;;;;;;;5082173;28;20524;-81
2023/06/11 08:40:18;;;;;;;10.90;7.00;;;;;;;;;;5082223;28;20452;-81
2023/06/11 08:42:46;;;;;;;13.40;8.07;;;;;;;;;;5085135;28;20544;-81
2023/06/11 08:45:13;;;;;;;10.70;7.27;;;;;;;;;;5079564;28;20478;-81
2023/06/11 08:47:42;;;;;;;10.47;7.10;;;;;;;;;;5080640;28;20463;-81
2023/06/11 08:50:08;;;;;;;10.73;7.80;;;;;;;;;;5083648;28;20963;-81
2023/06/11 08:52:35;;;;;;;8.27;7.40;;;;;;;;;;5079918;28;20463;-81
2023/06/11 08:55:06;;;;;;;9.87;7.73;;;;;;;;;;5079002;28;20451;-80
2023/06/11 08:57:32;;;;;;;7.70;6.90;;;;;;;;;;5083983;28;20506;-81
2023/06/11 08:59:58;;;;;;;9.70;7.97;;;;;;;;;;5081533;28;20444;-81
2023/06/11 09:02:25;;;;;;;11.17;7.77;;;;;;;;;;5090856;28;20478;-81
2023/06/11 09:04:52;;;;;;;8.50;7.50;;;;;;;;;;5072471;28;20490;-81
2023/06/11 09:07:24;;;;;;;9.57;8.03;;;;;;;;;;5077824;28;20471;-81
2023/06/11 09:09:52;;;;;;;10.07;7.40;;;;;;;;;;5072835;28;20604;-81
2023/06/11 09:12:20;;;;;;;9.23;7.43;;;;;;;;;;5078543;28;20466;-81
2023/06/11 09:14:51;;;;;;;12.00;8.50;;;;;;;;;;5074804;28;20453;-81
2023/06/11 09:17:18;;;;;;;9.77;7.90;;;;;;;;;;5068971;28;20498;-81
2023/06/11 09:19:44;;;;;;;9.17;8.37;;;;;;;;;;5078954;28;20959;-81
2023/06/11 09:22:11;;;;;;;9.00;7.13;;;;;;;;;;5080317;28;20466;-81
2023/06/11 09:24:38;;;;;;;9.10;8.00;;;;;;;;;;5075256;28;20960;-81
2023/06/11 09:27:08;;;;;;;10.47;8.10;;;;;;;;;;5070557;28;20479;-80
2023/06/11 09:29:36;;;;;;;8.23;7.40;;;;;;;;;;5074470;28;20465;-80
2023/06/11 09:32:03;;;;;;;8.20;6.90;;;;;;;;;;5081476;28;21034;-81
2023/06/11 09:34:30;;;;;;;8.43;7.57;;;;;;;;;;5079820;28;20462;-81
2023/06/11 09:36:57;;;;;;;8.43;7.63;;;;;;;;;;5080198;28;20474;-81
2023/06/11 09:39:24;;;;;;;8.83;7.57;;;;;;;;;;5091328;28;20443;-81
2023/06/11 09:41:50;;;;;;;14.93;9.00;;;;;;;;;;5067144;28;20818;-81
2023/06/11 09:44:17;;;;;;;9.47;7.93;;;;;;;;;;5078122;28;20476;-80
2023/06/11 09:46:45;;;;;;;9.57;7.43;;;;;;;;;;5079081;28;20887;-82
2023/06/11 09:49:13;;;;;;;8.73;7.47;;;;;;;;;;5066781;28;20458;-81
2023/06/11 09:51:39;;;;;;;8.33;7.53;;;;;;;;;;5078702;28;20454;-81
2023/06/11 09:54:07;;;;;;;14.33;8.13;;;;;;;;;;5076146;28;20439;-82
2023/06/11 09:56:34;;;;;;;9.27;6.87;;;;;;;;;;5079299;28;20447;-82
2023/06/11 09:59:01;;;;;;;9.20;6.90;;;;;;;;;;5081408;28;20492;-81
2023/06/11 10:01:29;;;;;;;7.50;6.80;;;;;;;;;;5076165;28;20948;-82
2023/06/11 10:03:57;;;;;;;11.07;6.97;;;;;;;;;;5073241;28;20480;-82
2023/06/11 10:06:25;;;;;;;7.30;6.60;;;;;;;;;;5078063;28;20489;-81
2023/06/11 10:08:53;;;;;;;9.40;8.50;;;;;;;;;;5075948;28;20482;-81
2023/06/11 10:11:21;;;;;;;8.50;7.40;;;;;;;;;;5086225;28;20458;-81
2023/06/11 10:13:57;;;;;;;9.10;7.10;;;;;;;;;;5087062;28;20462;-81
2023/06/11 10:16:23;;;;;;;9.90;7.03;;;;;;;;;;5080026;28;20442;-81
2023/06/11 10:18:50;;;;;;;13.83;7.70;;;;;;;;;;5068191;28;20463;-81
2023/06/11 10:21:18;;;;;;;9.67;7.27;;;;;;;;;;5082712;28;20446;-80
2023/06/11 10:23:51;;;;;;;8.50;7.07;;;;;;;;;;5081598;28;20463;-81
2023/06/11 10:26:17;;;;;;;12.73;6.80;;;;;;;;;;5073139;28;20919;-81
2023/06/11 10:28:48;;;;;;;7.87;7.17;;;;;;;;;;5077165;28;20466;-81
2023/06/11 10:31:24;;;;;;;8.13;7.00;;;;;;;;;;5079447;28;20473;-81
2023/06/11 10:33:51;;;;;;;8.67;6.57;;;;;;;;;;5073004;28;20470;-81
2023/06/11 10:36:26;;;;;;;8.10;7.30;;;;;;;;;;5078378;28;21106;-80
2023/06/11 10:38:52;;;;;;;7.43;6.73;;;;;;;;;;5086489;28;20465;-81
2023/06/11 10:41:29;;;;;;;7.23;6.50;;;;;;;;;;5083742;28;20454;-82
2023/06/11 10:43:56;;;;;;;8.40;7.00;;;;;;;;;;5082566;28;20434;-81
2023/06/11 10:46:22;;;;;;;8.00;7.10;;;;;;;;;;5080104;28;20532;-80
2023/06/11 10:48:49;;;;;;;10.40;7.80;;;;;;;;;;5079568;28;20849;-81
2023/06/11 10:51:17;;;;;;;8.47;7.57;;;;;;;;;;5073470;28;20450;-80
2023/06/11 10:53:54;;;;;;;10.50;8.17;;;;;;;;;;5074955;28;20489;-81
2023/06/11 10:56:22;;;;;;;10.10;7.63;;;;;;;;;;5079312;28;20475;-81
2023/06/11 10:58:49;;;;;;;7.17;6.47;;;;;;;;;;5071025;28;20479;-81
2023/06/11 11:01:16;;;;;;;7.63;6.73;;;;;;;;;;5083270;28;20896;-81
2023/06/11 11:03:43;;;;;;;9.90;8.70;;;;;;;;;;5088343;28;20857;-81
2023/06/11 11:06:09;;;;;;;9.80;8.00;;;;;;;;;;5075053;28;20570;-81
2023/06/11 11:08:36;;;;;;;8.80;7.40;;;;;;;;;;5078221;28;20479;-81
2023/06/11 11:11:05;;;;;;;11.10;8.10;;;;;;;;;;5074544;28;20473;-81
2023/06/11 11:13:31;;;;;;;8.87;7.93;;;;;;;;;;5077678;28;20482;-81
2023/06/11 11:15:58;;;;;;;9.60;8.40;;;;;;;;;;5088261;28;20451;-81
2023/06/11 11:18:25;;;;;;;10.50;7.97;;;;;;;;;;5090255;28;20466;-80
2023/06/11 11:20:52;;;;;;;9.40;8.47;;;;;;;;;;5070363;28;20821;-81
2023/06/11 11:23:19;;;;;;;12.03;7.40;;;;;;;;;;5083071;28;20514;-81
2023/06/11 11:25:45;;;;;;;15.53;8.50;;;;;;;;;;5083197;28;20482;-81
2023/06/11 11:28:13;;;;;;;11.20;8.07;;;;;;;;;;5086415;28;20478;-80
2023/06/11 11:30:40;;;;;;;8.83;7.93;;;;;;;;;;5084075;28;20458;-81
2023/06/11 11:33:06;;;;;;;9.20;8.23;;;;;;;;;;5082154;28;20494;-81
2023/06/11 11:35:33;;;;;;;9.23;8.03;;;;;;;;;;5076884;28;20879;-81
2023/06/11 11:37:59;;;;;;;9.80;8.40;;;;;;;;;;5078820;28;20477;-81
2023/06/11 11:40:26;;;;;;;10.30;7.23;;;;;;;;;;5085181;28;20447;-81
2023/06/11 11:42:52;;;;;;;7.70;7.00;;;;;;;;;;5087607;28;20829;-80
2023/06/11 11:45:20;;;;;;;8.70;7.10;;;;;;;;;;5085339;28;20435;-81
2023/06/11 11:47:50;;;;;;;8.80;8.00;;;;;;;;;;5080945;28;20470;-81
2023/06/11 11:50:21;;;;;;;13.03;7.83;;;;;;;;;;5087097;28;20450;-80
2023/06/11 11:53:01;;;;;;;8.70;7.67;;;;;;;;;;5081360;28;20494;-81
2023/06/11 11:55:28;;;;;;;9.73;7.77;;;;;;;;;;5086314;28;20478;-81
2023/06/11 11:58:01;;;;;;;8.27;7.47;;;;;;;;;;5081615;28;20478;-80
2023/06/11 12:00:29;;;;;;;9.20;7.90;;;;;;;;;;5077891;28;20455;-80
2023/06/11 12:02:56;;;;;;;8.80;7.40;;;;;;;;;;5089484;28;20470;-81
2023/06/11 12:05:22;;;;;;;10.00;7.70;;;;;;;;;;5081308;28;20450;-80
2023/06/11 12:07:52;;;;;;;9.40;6.70;;;;;;;;;;5077816;28;20479;-81
2023/06/11 12:10:18;;;;;;;7.47;6.77;;;;;;;;;;5085769;28;20874;-81
2023/06/11 12:12:44;;;;;;;15.70;7.70;;;;;;;;;;5076657;28;20473;-81
2023/06/11 12:15:12;;;;;;;8.30;7.10;;;;;;;;;;5082508;28;20461;-81
2023/06/11 12:17:43;;;;;;;12.27;6.63;;;;;;;;;;5074217;28;20537;-81
2023/06/11 12:20:09;;;;;;;12.77;6.90;;;;;;;;;;5074878;28;20459;-81
2023/06/11 12:22:37;;;;;;;8.67;6.70;;;;;;;;;;5084482;28;20478;-81
2023/06/11 12:25:05;;;;;;;7.63;6.83;;;;;;;;;;5079529;28;20533;-81
2023/06/11 12:27:31;;;;;;;10.13;7.37;;;;;;;;;;5082977;28;20930;-81
2023/06/11 12:29:58;;;;;;;9.93;6.83;;;;;;;;;;5081535;28;20532;-81
2023/06/11 12:32:25;;;;;;;7.20;6.50;;;;;;;;;;5073818;28;20502;-81
2023/06/11 12:34:53;;;;;;;9.90;6.47;;;;;;;;;;5071497;28;20980;-81
2023/06/11 12:37:22;;;;;;;9.80;5.90;;;;;;;;;;5077176;28;20474;-81
2023/06/11 12:39:48;;;;;;;9.90;6.17;;;;;;;;;;5078857;28;20446;-81
2023/06/11 12:42:15;;;;;;;8.30;6.40;;;;;;;;;;5076972;28;20478;-81
2023/06/11 12:44:43;;;;;;;8.80;6.03;;;;;;;;;;5083781;28;20443;-81
2023/06/11 12:47:10;;;;;;;9.23;7.23;;;;;;;;;;5077148;28;20558;-81
2023/06/11 12:49:37;;;;;;;7.00;6.30;;;;;;;;;;5075747;28;20501;-81
2023/06/11 12:52:05;;;;;;;11.70;6.83;;;;;;;;;;5076977;28;20485;-81
2023/06/11 12:54:32;;;;;;;9.50;6.73;;;;;;;;;;5077577;28;20526;-81
2023/06/11 12:56:58;;;;;;;9.33;8.40;;;;;;;;;;5078634;28;20473;-81
2023/06/11 12:59:26;;;;;;;8.67;7.40;;;;;;;;;;5081431;28;20435;-81
2023/06/11 13:01:54;;;;;;;8.63;6.70;;;;;;;;;;5083853;28;20468;-80
2023/06/11 13:04:20;;;;;;;10.23;7.57;;;;;;;;;;5083935;28;20952;-81
2023/06/11 13:06:47;;;;;;;7.60;6.37;;;;;;;;;;5078118;28;20485;-81
2023/06/11 13:09:15;;;;;;;11.60;7.57;;;;;;;;;;5085100;28;20470;-81
2023/06/11 13:11:41;;;;;;;10.00;7.30;;;;;;;;;;5078151;28;20462;-81
2023/06/11 13:14:08;;;;;;;7.03;6.30;;;;;;;;;;5083757;28;20933;-81
2023/06/11 13:16:34;;;;;;;8.77;6.30;;;;;;;;;;5077301;28;20455;-81
2023/06/11 13:19:02;;;;;;;9.07;7.63;;;;;;;;;;5076335;28;20470;-80
2023/06/11 13:21:29;;;;;;;8.80;7.10;;;;;;;;;;5074459;28;20466;-81
2023/06/11 13:23:55;;;;;;;6.80;6.30;;;;;;;;;;5077293;28;20450;-81
2023/06/11 13:26:23;;;;;;;7.70;6.90;;;;;;;;;;5083971;28;20478;-81
2023/06/11 13:28:50;;;;;;;7.47;6.53;;;;;;;;;;5081151;28;20565;-81
2023/06/11 13:31:17;;;;;;;10.17;6.53;;;;;;;;;;5081860;28;20470;-81
2023/06/11 13:33:43;;;;;;;8.23;7.13;;;;;;;;;;5083154;28;20481;-81
2023/06/11 13:36:10;;;;;;;7.57;6.87;;;;;;;;;;5076918;28;20455;-81
2023/06/11 13:38:37;;;;;;;10.10;6.50;;;;;;;;;;5080988;28;20467;-81
2023/06/11 13:41:03;;;;;;;7.23;6.53;;;;;;;;;;5084085;28;20557;-81
2023/06/11 13:43:31;;;;;;;7.57;6.87;;;;;;;;;;5079256;28;20494;-81
2023/06/11 13:45:58;;;;;;;7.50;6.70;;;;;;;;;;5078190;28;20455;-81
2023/06/11 13:48:24;;;;;;;11.53;6.30;;;;;;;;;;5075885;28;20482;-81
2023/06/11 13:50:51;;;;;;;10.90;6.67;;;;;;;;;;5076430;28;20455;-81
2023/06/11 13:53:18;;;;;;;9.13;7.37;;;;;;;;;;5078212;28;20465;-81
2023/06/11 13:55:47;;;;;;;11.20;7.40;;;;;;;;;;5081818;28;20951;-81
2023/06/11 13:58:14;;;;;;;10.37;6.90;;;;;;;;;;5078117;28;20479;-81
2023/06/11 14:00:42;;;;;;;9.50;6.50;;;;;;;;;;5075539;28;20866;-81
2023/06/11 14:03:09;;;;;;;8.27;7.23;;;;;;;;;;5073476;28;20485;-80
2023/06/11 14:05:35;;;;;;;7.07;6.27;;;;;;;;;;5081279;28;20450;-81
2023/06/11 14:08:02;;;;;;;6.73;6.13;;;;;;;;;;5067448;28;20479;-80
2023/06/11 14:10:28;;;;;;;8.10;6.60;;;;;;;;;;5068913;28;20453;-81
2023/06/11 14:12:55;;;;;;;8.20;6.70;;;;;;;;;;5071946;28;20471;-81
2023/06/11 14:15:21;;;;;;;8.17;6.57;;;;;;;;;;5082432;28;20453;-81
2023/06/11 14:17:49;;;;;;;8.40;6.87;;;;;;;;;;5082793;28;20474;-81
2023/06/11 14:20:18;;;;;;;7.67;6.80;;;;;;;;;;5083470;28;20556;-81
2023/06/11 14:22:44;;;;;;;9.00;6.30;;;;;;;;;;5076369;28;21027;-81
2023/06/11 14:25:11;;;;;;;9.10;6.50;;;;;;;;;;5072865;28;20478;-81
2023/06/11 14:27:37;;;;;;;9.10;8.20;;;;;;;;;;5078101;28;20553;-81
2023/06/11 14:30:04;;;;;;;9.40;8.63;;;;;;;;;;5075669;28;20480;-81
2023/06/11 14:32:32;;;;;;;9.97;6.17;;;;;;;;;;5072501;28;20555;-81
2023/06/11 14:34:59;;;;;;;9.63;6.70;;;;;;;;;;5081549;28;20547;-81
2023/06/11 14:37:26;;;;;;;7.50;6.47;;;;;;;;;;5076790;28;20463;-81
2023/06/11 14:39:54;;;;;;;10.07;6.40;;;;;;;;;;5077152;28;20458;-80
2023/06/11 14:42:22;;;;;;;8.47;7.17;;;;;;;;;;5078731;28;20858;-81